Time;durP1;ratioP1;P1;durP2;ratioP2;P2;SDS_P1;SDS_P2;PMS_P1;PMS_P2;Temp;Humidity;BMP_temperature;BMP_pressure;BME280_temperature;BME280_humidity;BME280_pressure;Samples;Min_cycle;Max_cycle;Signal;HPM_P1;HPM_P2
2022/12/15 00:39:41;;;;;;;20.80;10.10;;;-8.40;99.90;;;-10.49;100.00;99616.53;4911303;29;20060;-80
2022/12/15 00:42:09;;;;;;;24.15;10.27;;;-8.40;99.90;;;-10.53;100.00;99609.78;4920960;29;20059;-79
2022/12/15 00:44:36;;;;;;;25.08;10.20;;;-8.40;99.90;;;-10.68;100.00;99604.63;4920715;29;20038;-80
2022/12/15 00:47:05;;;;;;;20.07;9.40;;;-8.50;99.90;;;-10.85;100.00;99603.16;4901177;29;20052;-79
2022/12/15 01:20:19;;;;;;;21.27;9.60;;;-9.30;99.90;;;-11.42;100.00;99628.88;4901764;29;20043;-78
2022/12/15 01:22:52;;;;;;;21.55;9.20;;;-9.30;99.90;;;-11.45;100.00;99629.06;4910836;29;20103;-79
2022/12/15 01:25:23;;;;;;;22.27;9.27;;;-9.30;99.90;;;-11.48;100.00;99640.63;4905319;29;20060;-78
2022/12/15 01:27:49;;;;;;;22.92;9.85;;;-9.30;99.90;;;-11.52;100.00;99636.53;4910748;29;20051;-77
2022/12/15 01:30:23;;;;;;;18.45;9.60;;;-9.40;99.90;;;-11.58;100.00;99635.13;4909670;29;20039;-79
2022/12/15 01:32:54;;;;;;;22.30;9.52;;;-9.40;99.90;;;-11.52;100.00;99636.53;4905066;29;20033;-79
2022/12/15 01:35:21;;;;;;;21.90;9.57;;;-9.40;99.90;;;-11.54;100.00;99641.06;4901493;29;20032;-79
2022/12/15 01:37:47;;;;;;;20.83;9.18;;;-9.40;99.90;;;-11.57;100.00;99631.56;4906553;29;20032;-78
2022/12/15 01:43:02;;;;;;;32.40;10.50;;;-9.40;99.90;;;-11.55;100.00;99634.09;4909324;29;20152;-78
2022/12/15 01:45:28;;;;;;;19.77;9.50;;;-9.50;99.90;;;-11.66;100.00;99636.59;4908131;29;20087;-79
2022/12/15 01:48:11;;;;;;;22.23;10.02;;;-9.60;99.90;;;-11.82;100.00;99632.31;4905697;29;20036;-78
2022/12/15 01:50:57;;;;;;;18.30;8.48;;;-9.60;99.90;;;-11.91;100.00;99633.72;4905613;29;20479;-79
2022/12/15 01:53:24;;;;;;;22.70;9.73;;;-9.70;99.90;;;-11.93;100.00;99643.50;4912351;29;20168;-77
2022/12/15 01:55:52;;;;;;;23.05;9.93;;;-9.80;99.90;;;-12.00;100.00;99642.22;4906899;29;20032;-78
2022/12/15 01:58:21;;;;;;;23.67;9.35;;;-9.80;99.90;;;-12.09;100.00;99642.81;4908876;29;20064;-78
2022/12/15 02:00:53;;;;;;;24.17;9.95;;;-9.90;99.90;;;-12.19;100.00;99640.75;4909426;29;20502;-79
2022/12/15 02:03:19;;;;;;;21.00;8.98;;;-10.00;99.90;;;-12.16;100.00;99655.53;4910517;29;20491;-79
2022/12/15 02:05:46;;;;;;;19.70;9.32;;;-10.00;99.90;;;-12.19;100.00;99645.19;4906477;29;20095;-79
2022/12/15 02:08:12;;;;;;;22.73;9.40;;;-10.00;99.90;;;-12.03;100.00;99640.63;4903771;29;20110;-79
2022/12/15 02:11:16;;;;;;;24.08;9.05;;;-9.90;99.90;;;-11.79;100.00;99650.53;4907102;29;20631;-79
2022/12/15 02:14:06;;;;;;;23.10;9.00;;;-9.70;99.90;;;-11.25;100.00;99642.72;4904394;29;20044;-78
2022/12/15 02:17:04;;;;;;;23.30;9.27;;;-9.30;99.90;;;-10.90;100.00;99658.78;4909380;29;20059;-77
2022/12/15 02:19:43;;;;;;;19.02;9.55;;;-8.90;99.90;;;-10.76;100.00;99655.22;4907360;29;20036;-78
2022/12/15 02:22:49;;;;;;;19.45;9.43;;;-8.70;99.90;;;-10.43;100.00;99663.56;4899341;29;20052;-79
2022/12/15 02:25:46;;;;;;;21.80;9.65;;;-8.50;99.90;;;-10.20;100.00;99663.75;4909277;29;20043;-78
2022/12/15 02:28:41;;;;;;;25.35;9.88;;;-8.20;99.90;;;-9.98;100.00;99666.56;4904798;29;20080;-78
2022/12/15 02:32:05;;;;;;;20.35;9.23;;;-8.00;99.90;;;-9.77;100.00;99671.28;4897265;29;20029;-78
2022/12/15 02:34:39;;;;;;;20.08;10.05;;;-7.80;99.90;;;-9.82;100.00;99673.38;4898826;29;20135;-78
2022/12/15 02:37:16;;;;;;;24.77;9.48;;;-7.70;99.90;;;-9.83;100.00;99676.97;4908993;29;20488;-78
2022/12/15 02:39:42;;;;;;;27.58;9.65;;;-7.70;99.90;;;-9.81;100.00;99685.66;4900120;29;20056;-79
2022/12/15 02:42:10;;;;;;;26.42;11.48;;;-7.70;99.90;;;-9.81;100.00;99675.09;4910412;29;20069;-77
2022/12/15 02:44:48;;;;;;;21.17;10.50;;;-7.70;99.90;;;-9.63;100.00;99691.41;4908585;29;20040;-78
2022/12/15 02:47:49;;;;;;;20.10;8.88;;;-7.60;99.90;;;-9.50;100.00;99694.00;4913629;29;20118;-78
2022/12/15 02:50:40;;;;;;;20.27;9.38;;;-7.50;99.90;;;-9.39;100.00;99698.50;4909631;29;20082;-79
2022/12/15 02:53:46;;;;;;;19.63;10.80;;;-7.30;99.90;;;-9.39;100.00;99701.16;4909505;29;20034;-78
2022/12/15 02:56:37;;;;;;;20.25;9.98;;;-7.30;99.90;;;-9.26;100.00;99695.81;4913756;29;20028;-78
2022/12/15 02:59:14;;;;;;;22.73;10.43;;;-7.20;99.90;;;-9.20;100.00;99692.72;4913257;29;20086;-78
2022/12/15 03:02:06;;;;;;;27.45;10.65;;;-7.10;99.90;;;-9.14;100.00;99697.53;4912621;29;20031;-79
2022/12/15 03:04:32;;;;;;;25.48;10.57;;;-7.10;99.90;;;-9.13;100.00;99696.59;4912876;29;20039;-78
2022/12/15 03:07:05;;;;;;;24.70;11.00;;;-7.00;99.90;;;-9.05;100.00;99692.53;4912831;29;20032;-78
2022/12/15 03:09:34;;;;;;;24.52;10.18;;;-7.00;99.90;;;-8.93;100.00;99696.91;4909462;29;20651;-78
2022/12/15 03:12:00;;;;;;;21.17;10.82;;;-6.90;99.90;;;-8.86;100.00;99695.50;4913879;29;20040;-79
2022/12/15 03:14:26;;;;;;;21.63;11.20;;;-6.80;99.90;;;-8.83;100.00;99683.84;4911392;29;20035;-78
2022/12/15 03:16:53;;;;;;;21.95;10.75;;;-6.70;99.90;;;-8.68;100.00;99698.53;4906105;29;20396;-79
2022/12/15 03:19:25;;;;;;;22.38;11.25;;;-6.70;99.90;;;-8.66;100.00;99698.44;4912136;29;20119;-77
2022/12/15 03:22:01;;;;;;;21.20;10.85;;;-6.60;99.90;;;-8.63;100.00;99700.00;4905512;29;20032;-78
2022/12/15 03:24:39;;;;;;;19.65;10.80;;;-6.60;99.90;;;-8.64;100.00;99701.81;4905254;29;20064;-78
2022/12/15 03:27:10;;;;;;;19.85;11.60;;;-6.60;99.90;;;-8.58;100.00;99701.34;4907383;29;20040;-78
2022/12/15 03:29:44;;;;;;;24.25;11.20;;;-6.50;99.90;;;-8.59;100.00;99706.75;4918635;29;20047;-78
2022/12/15 03:32:10;;;;;;;26.13;11.75;;;-6.50;99.90;;;-8.58;100.00;99705.81;4908485;29;20031;-78
2022/12/15 03:34:36;;;;;;;20.58;9.70;;;-6.50;99.90;;;-8.48;100.00;99719.16;4912707;29;20056;-80
2022/12/15 03:37:02;;;;;;;26.30;10.63;;;-6.40;99.90;;;-8.42;100.00;99708.09;4907569;29;20458;-78
2022/12/15 03:39:28;;;;;;;21.30;11.18;;;-6.30;99.90;;;-8.37;100.00;99719.16;4902443;29;20040;-78
2022/12/15 03:41:54;;;;;;;22.58;11.05;;;-6.30;99.90;;;-8.32;100.00;99722.28;4898688;29;20052;-78
2022/12/15 03:44:21;;;;;;;25.48;11.30;;;-6.30;99.90;;;-8.37;100.00;99724.44;4899942;29;20037;-77
2022/12/15 03:46:47;;;;;;;26.40;12.18;;;-6.30;99.90;;;-8.47;100.00;99720.84;4909793;29;20032;-78
2022/12/15 03:49:14;;;;;;;22.95;11.80;;;-6.30;99.90;;;-8.41;100.00;99730.94;4905111;29;20052;-79
2022/12/15 03:51:41;;;;;;;21.77;10.63;;;-6.40;99.90;;;-8.32;100.00;99735.50;4906077;29;20096;-78
2022/12/15 03:54:12;;;;;;;21.48;11.60;;;-6.30;99.90;;;-8.29;100.00;99732.63;4903189;29;20216;-79
2022/12/15 03:59:34;;;;;;;21.10;10.60;;;-6.20;99.90;;;-8.15;100.00;99741.34;4912333;29;20506;-79
2022/12/15 04:02:03;;;;;;;21.55;10.95;;;-6.20;99.90;;;-8.17;100.00;99720.25;4898120;29;20036;-79
2022/12/15 04:04:29;;;;;;;20.58;11.18;;;-6.10;99.90;;;-8.11;100.00;99727.72;4910324;29;20036;-79
2022/12/15 04:06:55;;;;;;;21.63;10.75;;;-6.10;99.90;;;-8.08;100.00;99729.28;4907249;29;20044;-78
2022/12/15 04:09:30;;;;;;;26.98;11.80;;;-6.00;99.90;;;-8.00;100.00;99737.47;4910063;29;20411;-77
2022/12/15 04:12:02;;;;;;;22.60;10.25;;;-6.00;99.90;;;-8.04;100.00;99735.22;4908374;29;20052;-79
2022/12/15 04:14:29;;;;;;;23.05;10.43;;;-6.00;99.90;;;-8.04;100.00;99732.56;4907852;29;20047;-78
2022/12/15 04:16:58;;;;;;;25.67;10.85;;;-6.00;99.90;;;-8.13;100.00;99742.88;4898953;29;20044;-78
2022/12/15 04:22:12;;;;;;;24.48;11.18;;;-6.10;99.90;;;-8.16;100.00;99752.88;4910398;29;20427;-78
2022/12/15 05:33:42;;;;;;;23.65;11.45;;;-5.50;99.90;;;-7.46;100.00;99774.81;4905501;29;20074;-78
2022/12/15 05:36:08;;;;;;;18.88;9.95;;;-5.50;99.90;;;-7.41;100.00;99775.31;4907380;29;20065;-77
2022/12/15 05:38:34;;;;;;;18.30;9.15;;;-5.40;99.90;;;-7.49;100.00;99758.31;4909273;29;20047;-79
2022/12/15 05:41:00;;;;;;;19.27;9.55;;;-5.40;99.90;;;-7.40;100.00;99770.81;4902617;29;20484;-78
2022/12/15 05:43:27;;;;;;;22.33;8.98;;;-5.40;99.90;;;-7.39;100.00;99781.31;4907924;29;20094;-78
2022/12/15 05:46:19;;;;;;;20.93;9.43;;;-5.40;99.90;;;-7.35;100.00;99783.72;4905749;29;20876;-80
2022/12/15 05:48:45;;;;;;;22.33;8.77;;;-5.40;99.90;;;-7.42;100.00;99780.72;4906155;29;20797;-78
2022/12/15 05:51:32;;;;;;;18.25;9.07;;;-5.40;99.90;;;-7.48;100.00;99789.97;4896544;29;20052;-79
2022/12/15 05:54:01;;;;;;;16.50;8.63;;;-5.40;99.90;;;-7.48;100.00;99797.94;4901889;29;20032;-79
2022/12/15 05:56:30;;;;;;;18.30;8.82;;;-5.40;99.90;;;-7.40;100.00;99800.84;4905876;29;20032;-79
2022/12/15 05:58:56;;;;;;;22.05;10.20;;;-5.40;99.90;;;-7.36;100.00;99806.72;4906106;29;20032;-79
2022/12/15 06:01:27;;;;;;;20.92;9.07;;;-5.30;99.90;;;-7.30;100.00;99810.69;4907797;29;20095;-80
2022/12/15 06:03:53;;;;;;;21.65;10.93;;;-5.30;99.90;;;-7.30;100.00;99811.53;4910278;29;20024;-78
2022/12/15 06:06:19;;;;;;;17.75;8.85;;;-5.30;99.90;;;-7.37;100.00;99807.69;4910552;29;20114;-78
2022/12/15 06:08:48;;;;;;;18.98;9.80;;;-5.30;99.90;;;-7.27;100.00;99818.41;4909036;29;20041;-79
2022/12/15 06:11:17;;;;;;;19.77;9.48;;;-5.30;99.90;;;-7.31;100.00;99814.31;4910854;29;20385;-79
2022/12/15 06:13:43;;;;;;;20.42;9.45;;;-5.30;99.90;;;-7.37;100.00;99823.59;4906618;29;20309;-78
2022/12/15 06:16:19;;;;;;;17.98;9.80;;;-5.30;99.90;;;-7.36;100.00;99827.94;4908215;29;20028;-77
2022/12/15 06:18:51;;;;;;;15.23;8.35;;;-5.30;99.90;;;-7.35;100.00;99826.13;4911942;29;20094;-78
2022/12/15 06:21:22;;;;;;;18.52;9.30;;;-5.40;99.90;;;-7.31;100.00;99827.56;4906358;29;20479;-77
2022/12/15 06:23:48;;;;;;;18.40;9.90;;;-5.30;99.90;;;-7.34;100.00;99823.34;4903827;29;20036;-78
2022/12/15 06:26:20;;;;;;;20.95;8.88;;;-5.30;99.90;;;-7.27;100.00;99836.97;4908552;29;20067;-77
2022/12/15 06:28:47;;;;;;;20.17;9.40;;;-5.30;99.90;;;-7.30;100.00;99835.38;4902352;29;20028;-77
2022/12/15 06:31:16;;;;;;;21.73;10.07;;;-5.30;99.90;;;-7.23;100.00;99846.34;4903970;29;20043;-83
2022/12/15 06:33:42;;;;;;;16.92;9.02;;;-5.20;99.90;;;-7.19;100.00;99836.38;4908776;29;20035;-81
2022/12/15 06:36:12;;;;;;;20.33;9.10;;;-5.20;99.90;;;-7.12;100.00;99843.72;4913749;29;20032;-78
2022/12/15 06:38:38;;;;;;;18.65;8.25;;;-5.10;99.90;;;-7.12;100.00;99849.03;4909349;29;20115;-81
2022/12/15 06:41:06;;;;;;;24.38;11.38;;;-5.10;99.90;;;-7.09;100.00;99848.78;4905998;29;20068;-77
2022/12/15 06:43:32;;;;;;;;;;;-5.10;99.90;;;-7.18;100.00;99851.31;4904501;29;20551;-79
2022/12/15 06:46:00;;;;;;;20.00;7.82;;;-5.10;99.90;;;-7.17;100.00;99848.50;4910844;29;19923;-80
2022/12/15 06:48:26;;;;;;;19.30;9.07;;;-5.10;99.90;;;-7.16;100.00;99855.53;4908881;29;20055;-79
2022/12/15 06:50:54;;;;;;;22.23;8.95;;;-5.10;99.90;;;-7.20;100.00;99845.28;4909570;29;20054;-78
2022/12/15 06:53:22;;;;;;;20.55;9.50;;;-5.10;99.90;;;-7.26;100.00;99854.56;4910723;29;20367;-79
2022/12/15 06:55:49;;;;;;;19.80;10.05;;;-5.20;99.90;;;-7.21;100.00;99852.38;4910166;29;20029;-79
2022/12/15 06:58:16;;;;;;;19.73;9.52;;;-5.20;99.90;;;-7.18;100.00;99867.22;4905089;29;20036;-79
2022/12/15 07:00:45;;;;;;;24.00;10.32;;;-5.10;99.90;;;-7.23;100.00;99862.25;4905547;29;20458;-79
2022/12/15 07:03:17;;;;;;;18.25;9.05;;;-5.20;99.90;;;-7.24;100.00;99865.88;4905507;29;20040;-80
2022/12/15 07:05:45;;;;;;;19.92;9.63;;;-5.20;99.90;;;-7.19;100.00;99861.06;4904944;29;20043;-79
2022/12/15 07:08:13;;;;;;;20.20;9.38;;;-5.10;99.90;;;-7.17;100.00;99864.41;4903644;29;20069;-84
2022/12/15 07:10:42;;;;;;;18.17;9.82;;;-5.10;99.90;;;-7.10;100.00;99867.44;4902193;29;20509;-81
2022/12/15 07:13:18;;;;;;;19.75;9.73;;;-5.10;99.90;;;-7.16;100.00;99868.78;4903188;29;20038;-80
2022/12/15 07:16:06;;;;;;;26.02;10.23;;;-5.10;99.90;;;-7.19;100.00;99870.81;4907057;29;20036;-80
2022/12/15 07:18:32;;;;;;;23.38;9.80;;;-5.10;99.90;;;-7.19;100.00;99874.31;4910860;29;20040;-81
2022/12/15 07:21:04;;;;;;;21.70;9.85;;;-5.10;99.90;;;-7.15;100.00;99880.22;4906558;29;20047;-81
2022/12/15 07:23:31;;;;;;;21.60;10.48;;;-5.10;99.90;;;-7.15;100.00;99875.78;4912111;29;20040;-81
2022/12/15 07:25:57;;;;;;;19.65;10.10;;;-5.10;99.90;;;-7.13;100.00;99889.75;4905454;29;20063;-77
2022/12/15 07:28:23;;;;;;;23.80;9.82;;;-5.10;99.90;;;-7.11;100.00;99893.13;4910255;29;20044;-80
2022/12/15 07:30:48;;;;;;;20.00;8.38;;;-5.00;99.90;;;-7.11;100.00;99901.09;4914020;29;20404;-79
2022/12/15 07:33:17;;;;;;;19.10;9.85;;;-5.10;99.90;;;-7.15;100.00;99902.28;4913572;29;20032;-81
2022/12/15 07:35:52;;;;;;;24.85;9.93;;;-5.10;99.90;;;-7.14;100.00;99898.69;4905326;29;20403;-81
2022/12/15 07:38:18;;;;;;;21.05;9.88;;;-5.10;99.90;;;-7.17;100.00;99896.25;4912411;29;20032;-81
2022/12/15 07:40:44;;;;;;;21.23;9.52;;;-5.00;99.90;;;-7.09;100.00;99917.72;4908960;29;20367;-82
2022/12/15 07:43:10;;;;;;;19.17;10.40;;;-5.00;99.90;;;-7.18;100.00;99918.41;4907366;29;20123;-78
2022/12/15 07:45:36;;;;;;;18.85;9.70;;;-5.10;99.90;;;-7.10;100.00;99934.59;4908566;29;20188;-87
2022/12/15 07:48:01;;;;;;;21.95;10.00;;;-5.10;99.90;;;-7.14;100.00;99927.84;4903633;29;20036;-78
2022/12/15 07:50:28;;;;;;;20.80;10.50;;;-5.00;99.90;;;-7.08;100.00;99934.44;4905966;29;20040;-80
2022/12/15 07:52:54;;;;;;;20.77;10.70;;;-5.00;99.90;;;-7.11;100.00;99934.69;4908087;29;20127;-79
2022/12/15 07:55:20;;;;;;;25.80;10.30;;;-5.00;99.90;;;-7.00;100.00;99937.38;4913856;29;20076;-78
2022/12/15 07:57:48;;;;;;;21.52;9.70;;;-5.00;99.90;;;-6.96;100.00;99943.25;4909680;29;20040;-79
2022/12/15 08:00:16;;;;;;;18.70;10.23;;;-4.90;99.90;;;-6.90;100.00;99941.94;4908465;29;20028;-76
2022/12/15 08:02:41;;;;;;;22.58;10.93;;;-4.80;99.90;;;-6.86;100.00;99938.94;4908140;29;20415;-77
2022/12/15 08:05:09;;;;;;;21.90;10.63;;;-4.80;99.90;;;-6.81;100.00;99947.38;4908906;29;20040;-77
2022/12/15 08:07:34;;;;;;;24.67;11.27;;;-4.80;99.90;;;-6.69;100.00;99947.34;4910992;29;20141;-77
2022/12/15 08:10:00;;;;;;;28.23;11.07;;;-4.70;99.90;;;-6.65;100.00;99952.28;4911952;29;20639;-78
2022/12/15 08:12:27;;;;;;;24.60;11.25;;;-4.60;99.90;;;-6.61;100.00;99960.88;4917774;29;20035;-77
2022/12/15 08:14:53;;;;;;;25.35;10.82;;;-4.60;99.90;;;-6.54;100.00;99950.56;4903772;29;20067;-78
2022/12/15 08:17:19;;;;;;;23.65;9.98;;;-4.50;99.90;;;-6.42;100.00;99959.38;4904700;29;20032;-78
2022/12/15 08:19:45;;;;;;;25.02;11.68;;;-4.40;99.90;;;-6.40;100.00;99960.09;4903365;29;20036;-80
2022/12/15 08:22:11;;;;;;;19.60;10.27;;;-4.40;99.90;;;-6.30;100.00;99954.88;4907043;29;20039;-79
2022/12/15 08:24:37;;;;;;;21.33;10.75;;;-4.30;99.90;;;-6.19;100.00;99956.66;4901302;29;20037;-81
2022/12/15 08:27:03;;;;;;;26.20;11.50;;;-4.20;99.90;;;-6.12;100.00;99958.69;4900079;29;20123;-81
2022/12/15 08:29:28;;;;;;;24.02;10.98;;;-4.10;99.90;;;-6.10;100.00;99962.06;4903329;29;20039;-85
2022/12/15 08:31:54;;;;;;;20.42;10.00;;;-4.10;99.90;;;-6.00;100.00;99964.78;4919389;29;20039;-85
2022/12/15 08:34:20;;;;;;;23.48;11.57;;;-4.00;99.90;;;-5.92;100.00;99967.63;4913202;29;20020;-82
2022/12/15 08:36:46;;;;;;;20.55;9.45;;;-3.90;99.90;;;-5.87;100.00;99966.41;4919492;29;20551;-82
2022/12/15 08:39:11;;;;;;;19.73;10.23;;;-3.90;99.90;;;-5.86;100.00;99965.44;4910455;29;20080;-81
2022/12/15 08:41:37;;;;;;;21.02;10.55;;;-3.80;99.90;;;-5.80;100.00;99960.47;4904728;29;20040;-80
2022/12/15 08:44:03;;;;;;;25.13;10.82;;;-3.80;99.90;;;-5.70;100.00;99968.53;4909107;29;20404;-80
2022/12/15 08:46:33;;;;;;;22.55;10.20;;;-3.70;99.90;;;-5.60;100.00;99973.06;4909119;29;20032;-80
2022/12/15 08:49:00;;;;;;;22.30;11.20;;;-3.60;99.90;;;-5.52;100.00;99960.00;4908121;29;20518;-81
2022/12/15 08:51:28;;;;;;;;;;;-3.50;99.90;;;-5.41;100.00;99965.22;4911270;29;20032;-81
2022/12/15 08:53:56;;;;;;;28.13;10.55;;;-3.50;99.90;;;-5.28;100.00;99966.84;4910860;29;20450;-80
2022/12/15 08:56:24;;;;;;;22.70;10.95;;;-3.40;99.90;;;-5.17;100.00;99973.91;4910999;29;20107;-79
2022/12/15 08:58:56;;;;;;;20.42;10.65;;;-3.30;99.90;;;-5.08;100.00;99975.78;4905962;29;20489;-78
2022/12/15 09:01:25;;;;;;;24.60;11.63;;;-3.20;99.90;;;-5.01;100.00;99978.78;4909788;29;20040;-79
2022/12/15 09:03:53;;;;;;;23.88;11.73;;;-3.10;99.90;;;-4.86;100.00;99988.06;4910672;29;20046;-78
2022/12/15 09:06:33;;;;;;;21.17;10.60;;;-2.90;99.90;;;-4.80;100.00;99982.22;4910371;29;20432;-78
2022/12/15 09:09:04;;;;;;;20.77;9.93;;;-2.90;99.90;;;-4.69;100.00;99980.44;4904345;29;20036;-77
2022/12/15 09:11:30;;;;;;;21.08;11.00;;;-2.80;99.90;;;-4.64;100.00;99971.09;4909776;29;20036;-77
2022/12/15 09:13:57;;;;;;;24.48;11.02;;;-2.70;99.90;;;-4.49;100.00;99981.34;4910340;29;21282;-77
2022/12/15 09:16:24;;;;;;;20.85;10.00;;;-2.60;99.90;;;-4.41;100.00;99980.69;4905883;29;20036;-77
2022/12/15 09:18:53;;;;;;;19.58;10.43;;;-2.50;99.90;;;-4.36;100.00;99973.97;4907327;29;20487;-76
2022/12/15 09:21:23;;;;;;;24.52;11.18;;;-2.40;99.90;;;-4.22;100.00;99980.75;4907154;29;20190;-77
2022/12/15 09:23:50;;;;;;;20.75;10.93;;;-2.30;99.90;;;-4.10;100.00;99991.25;4908939;29;20082;-79
2022/12/15 09:26:19;;;;;;;20.05;10.35;;;-2.20;99.90;;;-4.00;100.00;99994.78;4903493;29;20042;-79
2022/12/15 09:28:44;;;;;;;20.27;11.00;;;-2.10;99.90;;;-3.85;100.00;99995.22;4910052;29;20055;-78
2022/12/15 09:31:15;;;;;;;18.75;10.68;;;-1.90;99.90;;;-3.68;100.00;99998.19;4910225;29;20034;-79
2022/12/15 09:33:42;;;;;;;21.70;10.13;;;-1.70;99.90;;;-3.54;99.28;100005.78;4909070;29;20400;-80
2022/12/15 09:36:11;;;;;;;18.90;10.68;;;-1.30;99.90;;;-3.32;99.35;100007.28;4909768;29;20028;-80
2022/12/15 09:38:40;;;;;;;19.73;10.80;;;-0.80;99.90;;;-2.98;98.38;99997.09;4904961;29;20040;-78
2022/12/15 09:41:13;;;;;;;19.58;10.35;;;0.00;99.90;;;-2.71;91.71;99992.81;4909729;29;20028;-77
2022/12/15 09:43:59;;;;;;;21.35;10.13;;;0.90;99.90;;;-2.33;88.31;99998.97;4909050;29;20135;-81
2022/12/15 09:47:14;;;;;;;20.83;9.75;;;1.60;99.90;;;-1.41;85.04;100000.75;4904450;29;20044;-79
2022/12/15 09:50:04;;;;;;;18.13;9.50;;;2.40;99.90;;;-0.61;74.13;99995.25;4882141;29;20363;-78
2022/12/15 09:52:52;;;;;;;18.95;10.95;;;2.90;99.90;;;0.53;68.07;100005.63;4909666;29;20462;-79
2022/12/15 09:55:27;;;;;;;17.80;9.38;;;3.20;99.90;;;1.45;60.43;100019.78;4906331;29;20083;-78
2022/12/15 09:58:12;;;;;;;16.13;9.40;;;3.40;99.00;;;1.65;56.78;100014.84;4909346;29;20443;-80
2022/12/15 10:00:54;;;;;;;18.23;9.52;;;3.60;98.80;;;1.71;58.29;100016.81;4906045;29;20523;-80
2022/12/15 10:03:50;;;;;;;19.40;10.50;;;3.70;98.60;;;1.89;57.45;100009.53;4909774;29;20091;-78
2022/12/15 10:06:38;;;;;;;19.60;10.07;;;3.60;98.70;;;2.42;55.35;100010.56;4905710;29;20142;-77
2022/12/15 10:09:28;;;;;;;17.98;9.45;;;3.80;98.40;;;2.03;54.31;100024.09;4906889;29;20051;-81
2022/12/15 10:12:05;;;;;;;17.63;10.57;;;3.80;96.70;;;2.83;52.47;100022.03;4909894;29;20036;-81
2022/12/15 10:14:53;;;;;;;17.73;9.23;;;3.90;96.80;;;3.01;50.99;100027.09;4904350;29;20032;-83
2022/12/15 10:17:37;;;;;;;17.00;9.68;;;4.20;96.20;;;4.02;49.90;100023.97;4917606;29;20402;-84
2022/12/15 10:20:14;;;;;;;15.70;8.85;;;4.80;95.70;;;4.53;48.19;100026.81;4915002;29;20040;-84
2022/12/15 10:22:40;;;;;;;16.90;8.98;;;5.20;93.40;;;4.21;47.37;100020.84;4911320;29;20058;-81
2022/12/15 10:25:28;;;;;;;18.85;9.52;;;5.20;94.30;;;4.33;48.26;100016.63;4913840;29;20466;-82
2022/12/15 10:28:19;;;;;;;16.25;9.07;;;5.40;92.10;;;3.29;49.11;100019.25;4913046;29;20066;-83
2022/12/15 10:31:01;;;;;;;15.98;9.60;;;5.20;91.60;;;4.98;46.15;100016.63;4911501;29;20043;-84
2022/12/15 10:33:34;;;;;;;16.83;9.23;;;5.80;90.60;;;5.01;45.30;100021.63;4916167;29;20040;-83
2022/12/15 10:36:00;;;;;;;16.85;9.77;;;6.50;86.70;;;5.44;44.86;100033.38;4926697;29;20071;-83
2022/12/15 10:38:41;;;;;;;15.98;9.45;;;6.60;85.60;;;5.06;46.70;100029.16;4919456;29;20024;-83
2022/12/15 10:41:14;;;;;;;15.35;9.55;;;6.30;87.60;;;5.80;44.66;100029.63;4925320;29;20032;-85
2022/12/15 10:43:46;;;;;;;16.75;8.48;;;6.70;87.70;;;5.47;45.55;100038.41;4922049;29;20111;-84
2022/12/15 10:46:20;;;;;;;16.88;9.10;;;6.70;85.90;;;5.36;45.16;100036.25;4927058;29;20028;-85
2022/12/15 10:48:48;;;;;;;15.68;9.15;;;6.80;85.10;;;5.38;44.73;100039.59;4912003;29;20089;-84
2022/12/15 10:51:22;;;;;;;16.38;9.15;;;7.20;82.00;;;5.64;45.00;100038.91;4914027;29;20395;-84
2022/12/15 10:54:04;;;;;;;17.13;9.63;;;7.00;83.10;;;5.42;45.00;100043.56;4912408;29;20036;-83
2022/12/15 10:56:32;;;;;;;17.83;9.80;;;6.70;83.40;;;5.55;45.57;100049.06;4917842;29;20502;-83
2022/12/15 10:59:01;;;;;;;;;;;6.80;84.80;;;5.48;44.97;100037.38;4918105;29;20048;-83
2022/12/15 11:01:31;;;;;;;13.95;8.82;;;7.00;83.70;;;5.32;46.20;100036.66;4915839;29;19914;-83
2022/12/15 11:03:57;;;;;;;16.27;9.45;;;6.90;84.60;;;5.20;45.54;100034.69;4916868;29;20037;-84
2022/12/15 11:06:31;;;;;;;15.93;9.63;;;7.00;84.00;;;5.39;45.26;100039.38;4919344;29;20601;-82
2022/12/15 11:09:35;;;;;;;17.33;9.75;;;7.00;82.70;;;5.25;45.43;100038.44;4923084;29;20107;-82
2022/12/15 11:15:01;;;;;;;14.93;8.50;;;7.10;84.20;;;6.36;44.42;100037.81;4916758;29;20028;-82
2022/12/15 11:17:40;;;;;;;15.55;9.10;;;7.80;81.60;;;6.08;44.04;100025.22;4916050;29;20496;-81
2022/12/15 11:20:26;;;;;;;15.48;9.55;;;8.00;78.80;;;6.62;43.29;100020.75;4912175;29;20508;-80
2022/12/15 11:23:01;;;;;;;15.07;9.02;;;8.00;79.50;;;5.84;45.47;100024.66;4923107;29;20031;-81
2022/12/15 11:25:43;;;;;;;15.30;9.05;;;7.80;79.90;;;6.09;44.34;100027.69;4922417;29;20039;-80
2022/12/15 11:28:21;;;;;;;13.18;8.45;;;8.10;78.70;;;6.76;43.32;100033.31;4918506;29;20431;-80
2022/12/15 11:31:01;;;;;;;15.65;8.05;;;8.50;78.20;;;6.33;43.86;100033.63;4919629;29;20471;-80
2022/12/15 11:33:27;;;;;;;15.88;9.43;;;8.40;77.70;;;6.86;43.60;100042.91;4930415;29;20036;-79
2022/12/15 11:36:08;;;;;;;14.35;8.80;;;8.70;77.60;;;7.26;42.48;100037.50;4918377;29;20036;-78
2022/12/15 11:38:49;;;;;;;15.05;9.15;;;9.00;75.50;;;6.50;43.19;100030.56;4918582;29;20118;-78
2022/12/15 11:41:42;;;;;;;14.80;8.65;;;8.50;76.60;;;5.97;43.72;100040.13;4919695;29;20099;-77
2022/12/15 11:44:48;;;;;;;16.88;9.63;;;8.10;77.10;;;6.06;45.21;100041.66;4913167;29;20123;-79
2022/12/15 11:47:41;;;;;;;15.73;8.98;;;7.80;80.00;;;6.55;43.95;100036.19;4917264;29;20112;-78
2022/12/15 11:50:21;;;;;;;13.30;8.38;;;8.30;77.80;;;6.39;44.57;100038.25;4920607;29;20039;-78
2022/12/15 11:53:13;;;;;;;15.77;9.15;;;7.90;79.60;;;5.58;45.83;100037.00;4921323;29;20094;-77
2022/12/15 11:56:00;;;;;;;14.90;9.00;;;7.40;80.80;;;6.34;44.94;100038.00;4912088;29;20434;-79
2022/12/15 11:58:45;;;;;;;14.48;8.40;;;7.80;80.10;;;7.01;44.35;100046.25;4905723;29;20036;-77
2022/12/15 12:01:59;;;;;;;16.25;9.20;;;8.20;79.90;;;7.10;42.28;100036.03;4922195;29;20463;-78
2022/12/15 12:04:36;;;;;;;16.52;8.63;;;8.80;75.90;;;6.43;44.00;100028.66;4889048;29;20036;-80
2022/12/15 12:07:18;;;;;;;13.80;8.55;;;8.40;76.50;;;6.87;43.43;100036.44;4917638;29;20041;-78
2022/12/15 12:10:47;;;;;;;14.85;8.73;;;8.60;76.00;;;7.36;42.18;100038.94;4911538;29;20032;-78
2022/12/15 12:13:35;;;;;;;14.73;9.55;;;9.00;75.00;;;6.76;43.30;100033.31;4913684;29;20040;-79
2022/12/15 12:16:38;;;;;;;16.42;9.68;;;8.90;75.00;;;6.85;43.20;100041.22;4932989;29;20111;-78
2022/12/15 12:19:22;;;;;;;14.75;9.05;;;8.80;75.40;;;6.81;44.22;100024.56;4914821;29;20531;-78
2022/12/15 12:21:52;;;;;;;16.25;9.20;;;8.30;77.70;;;7.07;43.47;100028.31;4910473;29;20034;-80
2022/12/15 12:24:54;;;;;;;16.02;8.88;;;8.70;76.40;;;6.59;44.25;100026.59;4911912;29;20503;-79
2022/12/15 12:27:40;;;;;;;15.52;9.80;;;8.50;77.00;;;7.07;43.24;100032.91;4908290;29;20059;-79
2022/12/15 12:30:19;;;;;;;13.95;8.75;;;8.90;75.70;;;6.29;45.40;100030.50;4900828;29;20629;-78
2022/12/15 12:33:21;;;;;;;13.75;9.13;;;8.50;76.50;;;7.43;43.30;100024.31;4911785;29;20056;-80
2022/12/15 12:36:01;;;;;;;14.45;8.93;;;9.10;75.90;;;6.30;44.36;100018.63;4911956;29;20036;-80
2022/12/15 12:38:39;;;;;;;15.48;8.75;;;8.80;74.30;;;7.39;43.50;100031.22;4914891;29;20514;-80
2022/12/15 12:41:29;;;;;;;14.55;8.73;;;9.00;81.90;;;6.19;44.39;100033.59;4914695;29;20035;-83
2022/12/15 12:44:02;;;;;;;14.90;8.75;;;9.00;72.90;;;7.11;43.90;100026.00;4904572;29;20407;-79
2022/12/15 12:46:42;;;;;;;13.50;8.40;;;9.20;74.20;;;5.55;45.68;100023.88;4899733;29;20392;-82
2022/12/15 12:49:36;;;;;;;15.63;9.52;;;8.70;73.70;;;5.45;47.19;100032.34;4896703;29;20056;-80
2022/12/15 12:52:05;;;;;;;14.20;9.27;;;7.90;77.50;;;5.44;47.14;100026.13;4911052;29;20063;-80
2022/12/15 12:54:37;;;;;;;15.25;9.10;;;7.80;78.40;;;5.14;47.16;100030.91;4915577;29;20024;-78
2022/12/15 12:57:11;;;;;;;14.27;9.27;;;8.10;77.30;;;5.76;47.48;100026.50;4907376;29;20044;-78
2022/12/15 12:59:43;;;;;;;14.43;8.57;;;8.10;77.60;;;6.38;45.21;100028.44;4903398;29;20396;-78
2022/12/15 13:02:23;;;;;;;15.85;8.90;;;8.60;76.50;;;6.60;44.69;100023.69;4902626;29;20036;-78
2022/12/15 13:04:56;;;;;;;13.95;8.85;;;9.00;75.30;;;6.47;44.49;100035.34;4899377;29;20041;-80
2022/12/15 13:07:39;;;;;;;13.98;9.02;;;8.90;73.30;;;7.18;43.68;100024.97;4902811;29;20109;-79